Time;durP1;ratioP1;P1;durP2;ratioP2;P2;SDS_P1;SDS_P2;PMS_P1;PMS_P2;Temp;Humidity;BMP_temperature;BMP_pressure;BME280_temperature;BME280_humidity;BME280_pressure;Samples;Min_cycle;Max_cycle;Signal;HPM_P1;HPM_P2
2023/12/05 00:00:28;;;;;;;3.37;2.00;;;18.60;37.50;;;;;;5066845;28;20217;-68
2023/12/05 00:02:54;;;;;;;1.80;1.70;;;18.60;37.50;;;;;;5066422;28;20224;-70
2023/12/05 00:05:20;;;;;;;1.43;1.33;;;18.60;37.50;;;;;;5062492;28;20273;-68
2023/12/05 00:07:45;;;;;;;1.70;1.60;;;18.60;37.60;;;;;;5060188;28;20641;-70
2023/12/05 00:10:11;;;;;;;1.50;1.40;;;18.60;37.60;;;;;;5034381;28;21381;-71
2023/12/05 00:12:37;;;;;;;1.80;1.70;;;18.60;37.50;;;;;;5050884;28;20282;-68
2023/12/05 00:15:03;;;;;;;2.03;1.60;;;18.60;37.60;;;;;;5060768;28;20223;-69
2023/12/05 00:17:29;;;;;;;2.33;2.03;;;18.60;37.50;;;;;;5040953;28;20209;-69
2023/12/05 00:19:55;;;;;;;1.60;1.50;;;18.60;37.50;;;;;;5047516;28;20991;-69
2023/12/05 00:22:20;;;;;;;1.57;1.47;;;18.60;37.50;;;;;;5052325;28;20344;-67
2023/12/05 00:24:46;;;;;;;1.90;1.50;;;18.60;37.50;;;;;;5060249;28;20217;-70
2023/12/05 00:27:11;;;;;;;1.60;1.50;;;18.60;37.50;;;;;;5053329;28;20363;-70
2023/12/05 00:29:37;;;;;;;1.83;1.73;;;18.60;37.60;;;;;;5064588;28;20308;-71
2023/12/05 00:32:03;;;;;;;2.00;1.90;;;18.60;37.50;;;;;;5064057;28;20220;-68
2023/12/05 00:34:29;;;;;;;1.90;1.80;;;18.60;37.50;;;;;;5068443;28;20225;-71
2023/12/05 00:36:55;;;;;;;1.83;1.73;;;18.60;37.60;;;;;;5061530;28;20462;-71
2023/12/05 00:39:20;;;;;;;1.60;1.50;;;18.60;37.60;;;;;;5064542;28;21553;-71
2023/12/05 00:41:47;;;;;;;1.50;1.40;;;18.60;37.60;;;;;;5051828;28;20305;-67
2023/12/05 00:44:12;;;;;;;1.90;1.67;;;18.60;37.60;;;;;;5059136;28;20598;-68
2023/12/05 00:46:38;;;;;;;2.00;1.90;;;18.60;37.60;;;;;;5062291;28;20446;-67
2023/12/05 00:49:04;;;;;;;1.47;1.37;;;18.60;37.60;;;;;;5045969;28;20216;-66
2023/12/05 00:51:30;;;;;;;1.70;1.60;;;18.60;37.70;;;;;;5059038;28;20428;-67
2023/12/05 00:53:56;;;;;;;1.70;1.60;;;18.60;37.70;;;;;;5064730;28;20231;-68
2023/12/05 00:56:21;;;;;;;1.60;1.50;;;18.60;37.70;;;;;;5053765;28;20793;-68
2023/12/05 00:58:47;;;;;;;1.53;1.43;;;18.60;37.70;;;;;;5057665;28;20610;-69
2023/12/05 01:01:13;;;;;;;1.70;1.60;;;18.60;37.60;;;;;;5050662;28;20221;-69
2023/12/05 01:03:38;;;;;;;1.70;1.60;;;18.60;37.60;;;;;;5051486;28;20232;-68
2023/12/05 01:06:05;;;;;;;1.70;1.60;;;18.60;37.70;;;;;;5042007;28;20533;-69
2023/12/05 01:08:30;;;;;;;2.00;1.90;;;18.60;37.70;;;;;;5054247;28;20243;-66
2023/12/05 01:10:56;;;;;;;1.90;1.70;;;18.60;37.60;;;;;;5062681;28;20441;-69
2023/12/05 01:13:24;;;;;;;1.60;1.50;;;18.60;37.70;;;;;;5052211;28;20225;-67
2023/12/05 01:15:49;;;;;;;1.70;1.60;;;18.60;37.80;;;;;;5050061;28;20281;-69
2023/12/05 01:18:15;;;;;;;1.60;1.50;;;18.60;37.70;;;;;;5065774;28;20515;-67
2023/12/05 01:20:41;;;;;;;1.40;1.30;;;18.60;37.80;;;;;;5059696;28;20228;-69
2023/12/05 01:23:06;;;;;;;1.50;1.40;;;18.60;37.70;;;;;;5036990;28;20229;-70
2023/12/05 01:25:32;;;;;;;1.40;1.30;;;18.60;38.50;;;;;;5060461;28;20235;-67
2023/12/05 01:27:58;;;;;;;1.90;1.70;;;18.60;37.70;;;;;;5064378;28;20217;-69
2023/12/05 01:30:24;;;;;;;1.70;1.60;;;18.60;37.80;;;;;;5030648;28;20232;-70
2023/12/05 01:32:50;;;;;;;1.43;1.30;;;18.60;37.80;;;;;;5050173;28;20433;-69
2023/12/05 01:35:16;;;;;;;1.60;1.50;;;18.60;37.80;;;;;;5048045;28;20233;-69
2023/12/05 01:37:42;;;;;;;1.57;1.47;;;18.60;37.80;;;;;;5047919;28;20229;-70
2023/12/05 01:40:09;;;;;;;1.80;1.50;;;18.60;37.80;;;;;;5053034;28;21014;-67
2023/12/05 01:42:38;;;;;;;1.67;1.57;;;18.60;37.70;;;;;;5063345;28;20450;-69
2023/12/05 01:45:08;;;;;;;1.47;1.37;;;18.60;37.80;;;;;;5045356;28;20437;-69
2023/12/05 01:47:35;;;;;;;1.50;1.40;;;18.60;37.80;;;;;;5051202;28;20982;-69
2023/12/05 01:50:03;;;;;;;1.57;1.47;;;18.60;37.90;;;;;;5060182;28;20440;-67
2023/12/05 01:52:29;;;;;;;1.60;1.50;;;18.60;37.80;;;;;;5050910;28;20473;-69
2023/12/05 01:54:55;;;;;;;1.90;1.70;;;18.60;37.90;;;;;;5055064;28;20457;-67
2023/12/05 01:57:21;;;;;;;1.90;1.80;;;18.60;38.00;;;;;;5051813;28;20504;-69
2023/12/05 01:59:47;;;;;;;1.60;1.50;;;18.60;37.80;;;;;;5054278;28;20229;-69
2023/12/05 02:02:13;;;;;;;1.50;1.40;;;18.60;37.80;;;;;;5050855;28;20453;-70
2023/12/05 02:04:39;;;;;;;1.50;1.40;;;18.60;37.80;;;;;;5065260;28;20248;-68
2023/12/05 02:07:06;;;;;;;1.70;1.60;;;18.60;37.80;;;;;;5063096;28;20467;-70
2023/12/05 02:09:32;;;;;;;1.70;1.60;;;18.50;37.70;;;;;;5070613;28;20811;-69
2023/12/05 02:11:57;;;;;;;1.50;1.40;;;18.60;37.80;;;;;;5051252;28;20440;-70
2023/12/05 02:14:24;;;;;;;1.77;1.60;;;18.60;37.90;;;;;;5058590;28;20228;-67
2023/12/05 02:16:57;;;;;;;1.70;1.60;;;18.60;37.90;;;;;;5053482;28;20626;-68
2023/12/05 02:19:49;;;;;;;1.70;1.60;;;18.60;37.90;;;;;;5052463;28;20468;-67
2023/12/05 02:22:46;;;;;;;1.50;1.40;;;18.60;37.90;;;;;;5059084;28;20521;-70
2023/12/05 02:25:27;;;;;;;1.70;1.60;;;18.60;37.90;;;;;;5048399;28;21029;-67
2023/12/05 02:27:53;;;;;;;1.87;1.77;;;18.60;37.90;;;;;;5053229;28;20561;-69
2023/12/05 02:30:19;;;;;;;1.70;1.60;;;18.60;37.90;;;;;;5059630;28;20482;-67
2023/12/05 02:32:44;;;;;;;1.40;1.30;;;18.50;37.90;;;;;;5060893;28;20490;-68
2023/12/05 02:35:13;;;;;;;1.87;1.77;;;18.50;37.80;;;;;;5036070;28;20221;-70
2023/12/05 02:38:10;;;;;;;1.87;1.77;;;18.60;37.90;;;;;;5062163;28;20220;-69
2023/12/05 02:40:46;;;;;;;2.07;1.97;;;18.60;37.90;;;;;;5047725;28;20501;-70
2023/12/05 02:43:15;;;;;;;1.70;1.60;;;18.50;37.90;;;;;;5057121;28;20477;-70
2023/12/05 02:45:46;;;;;;;1.87;1.77;;;18.50;37.90;;;;;;5058895;28;20444;-68
2023/12/05 02:48:12;;;;;;;1.63;1.53;;;18.50;38.60;;;;;;5051237;28;20448;-70
2023/12/05 02:50:39;;;;;;;1.60;1.50;;;18.50;37.80;;;;;;5045168;28;20425;-70
2023/12/05 02:53:04;;;;;;;1.67;1.57;;;18.60;37.90;;;;;;5036310;28;20437;-69
2023/12/05 02:55:30;;;;;;;1.50;1.40;;;18.50;37.90;;;;;;5044692;28;20535;-66
2023/12/05 02:57:56;;;;;;;1.80;1.70;;;18.50;37.80;;;;;;5046305;28;20298;-68
2023/12/05 03:00:21;;;;;;;2.00;1.90;;;18.50;37.90;;;;;;5040346;28;20690;-70
2023/12/05 03:02:47;;;;;;;1.50;1.40;;;18.50;38.60;;;;;;5031842;28;20638;-68
2023/12/05 03:05:13;;;;;;;1.70;1.60;;;18.60;38.00;;;;;;5033153;28;20245;-68
2023/12/05 03:07:38;;;;;;;1.80;1.70;;;18.60;38.00;;;;;;5038214;28;20243;-70
2023/12/05 03:10:04;;;;;;;2.20;2.00;;;18.50;37.90;;;;;;5032227;28;20310;-67
2023/12/05 03:12:33;;;;;;;1.90;1.80;;;18.50;37.80;;;;;;5029156;28;20272;-70
2023/12/05 03:14:59;;;;;;;2.00;1.90;;;18.50;37.90;;;;;;5045272;28;20459;-70
2023/12/05 03:17:24;;;;;;;2.10;2.00;;;18.50;37.80;;;;;;5045340;28;20493;-72
2023/12/05 03:19:50;;;;;;;1.60;1.50;;;18.50;37.90;;;;;;5047490;28;20490;-70
2023/12/05 03:22:15;;;;;;;1.80;1.70;;;18.50;37.90;;;;;;5041651;28;20753;-71
2023/12/05 03:24:41;;;;;;;2.00;1.90;;;18.50;37.90;;;;;;5044228;28;20236;-66
2023/12/05 03:27:06;;;;;;;1.80;1.70;;;18.50;38.20;;;;;;5029804;28;20237;-72
2023/12/05 03:29:33;;;;;;;1.70;1.60;;;18.50;37.90;;;;;;5031287;28;20378;-69
2023/12/05 03:31:59;;;;;;;1.70;1.60;;;18.50;38.00;;;;;;5044237;28;20244;-71
2023/12/05 03:34:24;;;;;;;1.70;1.60;;;18.50;37.90;;;;;;5026361;28;20957;-69
2023/12/05 03:36:50;;;;;;;1.60;1.50;;;18.50;37.90;;;;;;5020089;28;20890;-69
2023/12/05 03:39:16;;;;;;;1.90;1.80;;;18.50;37.90;;;;;;5034555;28;20685;-70
2023/12/05 03:41:43;;;;;;;1.70;1.60;;;18.50;38.00;;;;;;5043591;28;20225;-67
2023/12/05 03:44:09;;;;;;;2.00;1.87;;;18.50;38.50;;;;;;5037100;28;20225;-70
2023/12/05 03:46:34;;;;;;;1.93;1.83;;;18.50;37.90;;;;;;5036330;28;20497;-66
2023/12/05 03:49:00;;;;;;;1.87;1.77;;;18.50;37.90;;;;;;5035806;28;20286;-71
2023/12/05 03:51:26;;;;;;;2.00;1.90;;;18.50;37.90;;;;;;5039936;28;21558;-69
2023/12/05 03:53:51;;;;;;;1.90;1.80;;;18.50;37.90;;;;;;5038514;28;20239;-70
2023/12/05 03:56:17;;;;;;;1.87;1.77;;;18.50;38.60;;;;;;5046393;28;20267;-67
2023/12/05 03:58:42;;;;;;;2.00;1.87;;;18.50;37.90;;;;;;5034962;28;20228;-69
2023/12/05 04:01:08;;;;;;;1.90;1.80;;;18.50;37.90;;;;;;5056265;28;20443;-71
2023/12/05 04:03:35;;;;;;;1.63;1.53;;;18.50;37.90;;;;;;5054483;28;20224;-65
2023/12/05 04:06:01;;;;;;;1.77;1.67;;;18.50;38.00;;;;;;5048691;28;20387;-71
2023/12/05 04:08:26;;;;;;;1.80;1.70;;;18.50;37.90;;;;;;5051028;28;21208;-71
2023/12/05 04:10:52;;;;;;;1.93;1.77;;;18.50;37.90;;;;;;5048272;28;20248;-71
2023/12/05 04:13:17;;;;;;;1.60;1.50;;;18.50;37.90;;;;;;5045052;28;20217;-71
2023/12/05 04:15:43;;;;;;;1.70;1.60;;;18.50;37.90;;;;;;5054895;28;20325;-69
2023/12/05 04:18:09;;;;;;;2.00;1.90;;;18.50;38.00;;;;;;5065297;28;20473;-70
2023/12/05 04:20:34;;;;;;;1.60;1.50;;;18.50;37.90;;;;;;5059585;28;20624;-70
2023/12/05 04:23:00;;;;;;;4.03;1.77;;;18.50;37.90;;;;;;5065252;28;20257;-66
2023/12/05 04:25:25;;;;;;;1.80;1.70;;;18.50;37.90;;;;;;5038863;28;20304;-71
2023/12/05 04:27:51;;;;;;;1.90;1.67;;;18.50;37.90;;;;;;5050811;28;20240;-71
2023/12/05 04:30:17;;;;;;;2.00;1.90;;;18.50;37.90;;;;;;5045928;28;20241;-70
2023/12/05 04:32:42;;;;;;;1.70;1.60;;;18.50;37.90;;;;;;5051580;28;20255;-68
2023/12/05 04:35:08;;;;;;;1.70;1.60;;;18.50;38.00;;;;;;5054213;28;20975;-71
2023/12/05 04:37:34;;;;;;;1.73;1.63;;;18.50;37.90;;;;;;5054251;28;20234;-72
2023/12/05 04:40:00;;;;;;;2.30;2.10;;;18.50;37.90;;;;;;5041768;28;20221;-70
2023/12/05 04:42:25;;;;;;;1.87;1.77;;;18.50;37.90;;;;;;5048069;28;20695;-72
2023/12/05 04:44:51;;;;;;;1.80;1.70;;;18.50;37.90;;;;;;5065444;28;20302;-69
2023/12/05 04:47:17;;;;;;;1.70;1.60;;;18.50;37.90;;;;;;5055896;28;20593;-71
2023/12/05 04:49:42;;;;;;;1.73;1.63;;;18.50;37.90;;;;;;5054952;28;20229;-72
2023/12/05 04:52:08;;;;;;;1.70;1.60;;;18.50;37.90;;;;;;5054246;28;20582;-69
2023/12/05 04:54:33;;;;;;;2.17;2.07;;;18.50;37.90;;;;;;5060405;28;20392;-65
2023/12/05 04:56:59;;;;;;;1.80;1.70;;;18.50;37.90;;;;;;5052398;28;20236;-66
2023/12/05 04:59:24;;;;;;;1.93;1.83;;;18.50;37.90;;;;;;5065780;28;20578;-72
2023/12/05 05:01:50;;;;;;;3.00;1.90;;;18.50;37.80;;;;;;5059739;28;20232;-73
2023/12/05 05:04:16;;;;;;;1.60;1.50;;;18.50;37.90;;;;;;5060534;28;20225;-72
2023/12/05 05:06:41;;;;;;;1.67;1.57;;;18.60;37.90;;;;;;5042291;28;20245;-73
2023/12/05 05:09:07;;;;;;;1.93;1.83;;;18.50;37.80;;;;;;5060190;28;20221;-65
2023/12/05 05:11:33;;;;;;;1.70;1.60;;;18.60;38.10;;;;;;5059196;28;20263;-67
2023/12/05 05:13:58;;;;;;;1.57;1.47;;;18.50;37.80;;;;;;5059201;28;20208;-67
2023/12/05 05:16:24;;;;;;;1.73;1.63;;;18.50;37.80;;;;;;5057350;28;20252;-66
2023/12/05 05:18:52;;;;;;;1.70;1.60;;;18.60;37.80;;;;;;5062149;28;20217;-68
2023/12/05 05:21:17;;;;;;;1.87;1.77;;;18.60;37.80;;;;;;5056855;28;20220;-70
2023/12/05 05:23:43;;;;;;;1.60;1.50;;;18.60;37.70;;;;;;5064996;28;20435;-72
2023/12/05 05:26:08;;;;;;;1.80;1.70;;;18.60;37.60;;;;;;5064586;28;20771;-67
2023/12/05 05:28:34;;;;;;;1.77;1.67;;;18.60;37.60;;;;;;5052566;28;20843;-71
2023/12/05 05:31:01;;;;;;;1.60;1.50;;;18.60;37.60;;;;;;5058591;28;20229;-68
2023/12/05 05:33:26;;;;;;;1.80;1.70;;;18.60;37.60;;;;;;5056017;28;20228;-68
2023/12/05 05:35:52;;;;;;;1.70;1.60;;;18.60;37.50;;;;;;5052750;28;20798;-67
2023/12/05 05:38:17;;;;;;;1.67;1.57;;;18.60;37.50;;;;;;5047333;28;20220;-67
2023/12/05 05:40:43;;;;;;;2.10;1.90;;;18.60;37.50;;;;;;5053872;28;20229;-67
2023/12/05 05:43:09;;;;;;;1.87;1.77;;;18.60;37.50;;;;;;5054454;28;20788;-68
2023/12/05 05:45:35;;;;;;;1.80;1.70;;;18.60;37.60;;;;;;5061197;28;20263;-67
2023/12/05 05:48:01;;;;;;;1.63;1.53;;;18.60;37.60;;;;;;5060468;28;21779;-68
2023/12/05 05:50:26;;;;;;;1.70;1.60;;;18.60;37.60;;;;;;5059819;28;20230;-66
2023/12/05 05:52:52;;;;;;;1.60;1.50;;;18.60;37.70;;;;;;5049370;28;20981;-66
2023/12/05 05:55:18;;;;;;;1.80;1.47;;;18.60;38.30;;;;;;5036564;28;20692;-66
2023/12/05 05:57:44;;;;;;;1.70;1.60;;;18.60;37.60;;;;;;5031308;28;20249;-69
2023/12/05 06:00:11;;;;;;;1.30;1.20;;;18.60;37.50;;;;;;5057104;28;20439;-69
2023/12/05 06:02:37;;;;;;;2.70;1.80;;;18.60;37.60;;;;;;5061174;28;20424;-67
2023/12/05 06:05:04;;;;;;;2.60;1.80;;;18.60;38.30;;;;;;5057051;28;20548;-66
2023/12/05 06:07:30;;;;;;;1.70;1.50;;;18.60;37.60;;;;;;5053075;28;20845;-68
2023/12/05 06:09:56;;;;;;;1.83;1.50;;;18.60;37.60;;;;;;5060455;28;20457;-66
2023/12/05 06:12:22;;;;;;;2.77;1.70;;;18.60;37.60;;;;;;5055566;28;20464;-68
2023/12/05 06:14:49;;;;;;;3.10;1.73;;;18.60;37.60;;;;;;5053791;28;20476;-67
2023/12/05 06:17:14;;;;;;;1.80;1.70;;;18.60;37.70;;;;;;5054091;28;20332;-66
2023/12/05 06:19:40;;;;;;;1.73;1.63;;;18.60;37.70;;;;;;5055644;28;20479;-67
2023/12/05 06:22:05;;;;;;;1.67;1.57;;;18.60;37.70;;;;;;5054772;28;20225;-68
2023/12/05 06:24:31;;;;;;;1.90;1.70;;;18.60;37.60;;;;;;5053745;28;20338;-67
2023/12/05 06:26:57;;;;;;;1.60;1.50;;;18.60;37.60;;;;;;5054234;28;20332;-69
2023/12/05 06:29:22;;;;;;;1.60;1.50;;;18.60;37.70;;;;;;5049436;28;20219;-68
2023/12/05 06:31:48;;;;;;;1.57;1.47;;;18.60;37.70;;;;;;5052548;28;20217;-66
2023/12/05 06:34:14;;;;;;;2.47;1.50;;;18.60;37.60;;;;;;5059922;28;20230;-68
2023/12/05 06:36:39;;;;;;;1.40;1.30;;;18.70;37.70;;;;;;5055880;28;20221;-66
2023/12/05 06:39:08;;;;;;;2.93;1.50;;;18.70;37.70;;;;;;5058783;28;20735;-70
2023/12/05 06:41:34;;;;;;;1.57;1.47;;;18.70;37.70;;;;;;5062212;28;20228;-69
2023/12/05 06:44:00;;;;;;;1.40;1.30;;;18.70;37.80;;;;;;5061889;28;21311;-67
2023/12/05 06:46:25;;;;;;;1.97;1.30;;;18.60;37.60;;;;;;5049329;28;21035;-68
2023/12/05 06:48:51;;;;;;;2.60;1.50;;;18.60;37.70;;;;;;5068748;28;20224;-69
2023/12/05 06:51:18;;;;;;;1.53;1.43;;;18.70;37.80;;;;;;5058744;28;20285;-66
2023/12/05 06:53:46;;;;;;;2.03;1.37;;;18.70;37.80;;;;;;5054564;28;20218;-67
2023/12/05 06:56:12;;;;;;;2.60;1.30;;;18.60;37.80;;;;;;5061892;28;20470;-70
2023/12/05 06:58:38;;;;;;;1.50;1.40;;;18.60;37.80;;;;;;5061176;28;20801;-67
2023/12/05 07:01:03;;;;;;;4.33;1.53;;;18.60;37.80;;;;;;5049311;28;20576;-69
2023/12/05 07:03:29;;;;;;;1.87;1.73;;;18.60;37.80;;;;;;5067384;28;20221;-69
2023/12/05 07:05:55;;;;;;;1.60;1.50;;;18.60;37.90;;;;;;5068278;28;20233;-65
2023/12/05 07:08:21;;;;;;;2.47;1.47;;;18.60;37.80;;;;;;5072972;28;20307;-70
2023/12/05 07:10:46;;;;;;;2.27;1.50;;;18.60;37.80;;;;;;5043683;28;20233;-66
2023/12/05 07:13:12;;;;;;;1.80;1.33;;;18.60;37.90;;;;;;5071536;28;20427;-69
2023/12/05 07:15:37;;;;;;;1.37;1.27;;;18.60;37.80;;;;;;5068521;28;20243;-69
2023/12/05 07:18:03;;;;;;;1.40;1.30;;;18.60;37.90;;;;;;5070372;28;20288;-67
2023/12/05 07:20:29;;;;;;;1.70;1.60;;;18.60;37.90;;;;;;5065279;28;20236;-70
2023/12/05 07:22:54;;;;;;;2.17;1.40;;;18.60;37.90;;;;;;5071365;28;20224;-70
2023/12/05 07:25:20;;;;;;;1.77;1.67;;;18.60;37.90;;;;;;5069427;28;20231;-70
2023/12/05 07:27:45;;;;;;;1.77;1.67;;;18.60;37.90;;;;;;5039697;28;20310;-70
2023/12/05 07:30:11;;;;;;;1.63;1.30;;;18.60;37.90;;;;;;5066376;28;20214;-66
2023/12/05 07:32:37;;;;;;;1.30;1.20;;;18.60;37.90;;;;;;5068840;28;20217;-69
2023/12/05 07:35:03;;;;;;;1.67;1.57;;;18.60;37.90;;;;;;5071164;28;20451;-66
2023/12/05 07:37:28;;;;;;;1.40;1.30;;;18.60;37.90;;;;;;5033114;28;20221;-70
2023/12/05 07:39:54;;;;;;;1.30;1.20;;;18.60;37.90;;;;;;5054512;28;20225;-66
2023/12/05 07:42:20;;;;;;;1.40;1.30;;;18.60;38.00;;;;;;5060902;28;20221;-69
2023/12/05 07:44:45;;;;;;;2.10;1.70;;;18.60;38.00;;;;;;5054907;28;20456;-71
2023/12/05 07:47:11;;;;;;;1.40;1.30;;;18.60;37.90;;;;;;5052277;28;21816;-70
2023/12/05 07:49:37;;;;;;;1.50;1.40;;;18.60;37.90;;;;;;5048859;28;20225;-69
2023/12/05 07:52:04;;;;;;;1.43;1.33;;;18.60;37.90;;;;;;5055479;28;20455;-66
2023/12/05 07:54:29;;;;;;;2.40;1.63;;;18.60;38.00;;;;;;5056733;28;20811;-69
2023/12/05 07:56:55;;;;;;;1.40;1.30;;;18.60;37.90;;;;;;5054943;28;20440;-65
2023/12/05 07:59:21;;;;;;;1.40;1.30;;;18.60;38.00;;;;;;5061290;28;20394;-70
2023/12/05 08:01:46;;;;;;;1.30;1.20;;;18.60;38.00;;;;;;5053357;28;20790;-70
2023/12/05 08:04:12;;;;;;;1.63;1.30;;;18.60;38.00;;;;;;5061961;28;20307;-67
2023/12/05 08:06:37;;;;;;;1.50;1.40;;;18.60;38.00;;;;;;5057571;28;20588;-68
2023/12/05 08:09:03;;;;;;;1.63;1.53;;;18.60;38.00;;;;;;5069159;28;22002;-66
2023/12/05 08:11:29;;;;;;;1.50;1.40;;;18.60;38.00;;;;;;5061861;28;20217;-65
2023/12/05 08:13:54;;;;;;;1.40;1.30;;;18.60;38.00;;;;;;5061824;28;20226;-69
2023/12/05 08:16:20;;;;;;;1.57;1.20;;;18.60;38.00;;;;;;5047745;28;20241;-65
2023/12/05 08:18:46;;;;;;;1.60;1.50;;;18.60;38.00;;;;;;5056513;28;20228;-71
2023/12/05 08:21:12;;;;;;;1.30;1.20;;;18.60;38.00;;;;;;5048835;28;20307;-66
2023/12/05 08:23:38;;;;;;;1.33;1.23;;;18.60;38.00;;;;;;5063871;28;20436;-70
2023/12/05 08:26:04;;;;;;;2.10;1.53;;;18.60;38.00;;;;;;5058378;28;20229;-70
2023/12/05 08:28:30;;;;;;;3.50;1.30;;;18.60;38.00;;;;;;5068660;28;20225;-70
2023/12/05 08:30:56;;;;;;;2.83;1.20;;;18.60;38.00;;;;;;5054367;28;20534;-66
2023/12/05 08:33:22;;;;;;;1.30;1.20;;;18.60;38.00;;;;;;5047021;28;20225;-69
2023/12/05 08:35:47;;;;;;;1.50;1.40;;;18.60;38.00;;;;;;5052259;28;20239;-70
2023/12/05 08:38:13;;;;;;;1.30;1.20;;;18.60;38.00;;;;;;5055912;28;20539;-65
2023/12/05 08:40:38;;;;;;;2.20;1.20;;;18.60;38.00;;;;;;5059713;28;20268;-69
2023/12/05 08:43:04;;;;;;;1.10;1.00;;;18.60;38.00;;;;;;5054731;28;20820;-69
2023/12/05 08:45:30;;;;;;;1.20;1.10;;;18.60;38.00;;;;;;5055086;28;20233;-66
2023/12/05 08:47:56;;;;;;;1.30;1.20;;;18.60;38.00;;;;;;5048388;28;20324;-64
2023/12/05 08:50:22;;;;;;;1.30;1.20;;;18.50;37.90;;;;;;5057835;28;20221;-66
2023/12/05 08:52:47;;;;;;;1.43;1.33;;;18.60;38.00;;;;;;5061792;28;20232;-70
2023/12/05 08:55:14;;;;;;;1.30;1.20;;;18.60;38.00;;;;;;5057157;28;20436;-69
2023/12/05 08:57:40;;;;;;;1.50;1.40;;;18.60;38.00;;;;;;5067344;28;20275;-67
2023/12/05 09:00:06;;;;;;;1.30;1.20;;;18.60;38.80;;;;;;5069404;28;20502;-66
2023/12/05 09:02:32;;;;;;;1.30;1.20;;;18.50;37.90;;;;;;5056159;28;20419;-71
2023/12/05 09:04:58;;;;;;;1.20;1.10;;;18.50;37.90;;;;;;5067051;28;20608;-66
2023/12/05 09:07:23;;;;;;;1.30;1.20;;;18.60;38.00;;;;;;5035840;28;20313;-69
2023/12/05 09:09:51;;;;;;;1.30;1.20;;;18.50;37.90;;;;;;5059601;28;20724;-67
2023/12/05 09:12:17;;;;;;;1.40;1.20;;;18.50;37.90;;;;;;5054087;28;20224;-67
2023/12/05 09:14:42;;;;;;;1.27;1.17;;;18.50;37.90;;;;;;5064873;28;20948;-67
2023/12/05 09:17:11;;;;;;;1.30;1.20;;;18.60;38.00;;;;;;5058849;28;20223;-67
2023/12/05 09:19:37;;;;;;;1.10;1.00;;;18.60;38.00;;;;;;5062763;28;20223;-68
2023/12/05 09:22:03;;;;;;;1.63;1.27;;;18.50;37.90;;;;;;5056899;28;20830;-69
2023/12/05 09:24:29;;;;;;;1.87;1.23;;;18.60;38.00;;;;;;5056365;28;20541;-71
2023/12/05 09:26:55;;;;;;;1.80;1.40;;;18.50;37.90;;;;;;5061814;28;20465;-71
2023/12/05 09:29:21;;;;;;;1.53;1.43;;;18.50;37.90;;;;;;5061317;28;20297;-71
2023/12/05 09:31:46;;;;;;;1.20;1.10;;;18.50;37.90;;;;;;5036660;28;20217;-72
2023/12/05 09:34:12;;;;;;;1.40;1.30;;;18.50;37.90;;;;;;5062381;28;20217;-70
2023/12/05 09:36:38;;;;;;;1.30;1.17;;;18.50;37.90;;;;;;5058824;28;20679;-69
2023/12/05 09:39:04;;;;;;;1.40;1.30;;;18.50;37.90;;;;;;5072493;28;20449;-67
2023/12/05 09:41:31;;;;;;;1.57;1.47;;;18.50;37.90;;;;;;5069021;28;20220;-69
2023/12/05 09:44:01;;;;;;;1.30;1.20;;;18.50;37.90;;;;;;5052478;28;20461;-65
2023/12/05 09:46:30;;;;;;;1.73;1.63;;;18.50;37.90;;;;;;5063932;28;20456;-71
2023/12/05 09:49:00;;;;;;;1.33;1.23;;;18.50;37.90;;;;;;5067038;28;20438;-67
2023/12/05 09:51:26;;;;;;;1.40;1.30;;;18.50;37.90;;;;;;5050055;28;20458;-68
2023/12/05 09:53:55;;;;;;;1.30;1.20;;;18.50;37.90;;;;;;5071556;28;20714;-71
2023/12/05 09:56:22;;;;;;;1.20;1.10;;;18.50;37.90;;;;;;5069853;28;20321;-70
2023/12/05 09:58:48;;;;;;;1.10;1.00;;;18.50;37.90;;;;;;5073811;28;20428;-71
2023/12/05 10:01:15;;;;;;;1.17;1.00;;;18.50;38.60;;;;;;5069002;28;20814;-67
2023/12/05 10:03:43;;;;;;;1.43;1.23;;;18.50;37.90;;;;;;5054512;28;22799;-66
2023/12/05 10:06:10;;;;;;;1.20;1.10;;;18.50;37.90;;;;;;5055286;28;20552;-65
2023/12/05 10:08:39;;;;;;;1.23;1.13;;;18.50;37.90;;;;;;5067450;28;20446;-71
2023/12/05 10:11:05;;;;;;;1.10;1.00;;;18.50;37.90;;;;;;5068113;28;20569;-69
2023/12/05 10:13:31;;;;;;;1.80;1.70;;;18.50;37.90;;;;;;5057363;28;20469;-72
2023/12/05 10:15:59;;;;;;;1.40;1.30;;;18.50;37.90;;;;;;5041526;28;20216;-70
2023/12/05 10:18:25;;;;;;;1.17;1.07;;;18.50;38.00;;;;;;5070519;28;21132;-71
2023/12/05 10:20:51;;;;;;;1.33;1.23;;;18.50;37.90;;;;;;5069977;28;20681;-72
2023/12/05 10:23:18;;;;;;;1.30;1.20;;;18.50;37.90;;;;;;5070679;28;20947;-66
2023/12/05 10:25:43;;;;;;;1.40;1.30;;;18.50;37.90;;;;;;5060125;28;20212;-71
2023/12/05 10:28:09;;;;;;;1.30;1.20;;;18.50;37.90;;;;;;5051189;28;21094;-70
2023/12/05 10:30:38;;;;;;;1.37;1.20;;;18.50;37.90;;;;;;5056570;28;20225;-71
2023/12/05 10:33:16;;;;;;;1.40;1.30;;;18.50;37.90;;;;;;5047380;28;21588;-68
2023/12/05 10:35:42;;;;;;;1.27;1.17;;;18.50;37.90;;;;;;5066703;28;20797;-72
2023/12/05 10:38:10;;;;;;;1.30;1.20;;;18.50;37.90;;;;;;5071650;28;20429;-72
2023/12/05 10:40:56;;;;;;;1.20;1.10;;;18.50;37.90;;;;;;5033525;28;21352;-67
2023/12/05 10:43:26;;;;;;;1.20;1.10;;;18.50;37.90;;;;;;5047796;28;20868;-70
2023/12/05 10:45:54;;;;;;;1.30;1.20;;;18.50;37.90;;;;;;5064027;28;20428;-69
2023/12/05 10:48:20;;;;;;;1.10;1.00;;;18.50;37.90;;;;;;5058101;28;20440;-72
2023/12/05 10:50:51;;;;;;;2.20;1.37;;;18.50;37.90;;;;;;5059962;28;20458;-68
2023/12/05 10:53:17;;;;;;;1.33;1.23;;;18.50;38.00;;;;;;5069559;28;20447;-71
2023/12/05 10:55:44;;;;;;;1.70;1.10;;;18.50;37.90;;;;;;5061625;28;20429;-66
2023/12/05 10:58:11;;;;;;;1.10;1.00;;;18.50;37.90;;;;;;5068778;28;20499;-67
2023/12/05 11:00:38;;;;;;;1.33;1.10;;;18.50;37.90;;;;;;5065570;28;20484;-72
2023/12/05 11:03:03;;;;;;;1.13;1.03;;;18.50;37.90;;;;;;5064119;28;20492;-69
2023/12/05 11:05:31;;;;;;;1.30;1.20;;;18.50;38.00;;;;;;5054018;28;20555;-71
2023/12/05 11:07:57;;;;;;;1.30;1.20;;;18.50;37.90;;;;;;5047787;28;20241;-67
2023/12/05 11:10:24;;;;;;;1.30;1.20;;;18.50;37.90;;;;;;5059272;28;20432;-67
2023/12/05 11:12:52;;;;;;;1.10;1.00;;;18.50;37.90;;;;;;5056871;28;20443;-70
2023/12/05 11:15:24;;;;;;;1.30;1.20;;;18.50;37.90;;;;;;5029912;28;20429;-66
2023/12/05 11:18:04;;;;;;;1.23;1.07;;;18.50;38.00;;;;;;5045542;28;21524;-70
2023/12/05 11:20:53;;;;;;;0.90;0.90;;;18.50;37.90;;;;;;5054360;28;21910;-67
2023/12/05 11:23:56;;;;;;;1.10;1.00;;;18.50;37.90;;;;;;5054595;28;20440;-70
2023/12/05 11:26:39;;;;;;;1.20;1.10;;;18.50;38.00;;;;;;5064084;28;20455;-69
2023/12/05 11:29:48;;;;;;;1.20;1.10;;;18.50;38.00;;;;;;5067859;28;20938;-71
2023/12/05 11:32:32;;;;;;;1.40;1.30;;;18.50;37.90;;;;;;5064204;28;20458;-70
2023/12/05 11:35:07;;;;;;;1.13;1.00;;;18.50;37.90;;;;;;5049944;28;20417;-70
2023/12/05 11:37:50;;;;;;;1.13;1.03;;;18.50;37.90;;;;;;5055623;28;20783;-70
2023/12/05 11:40:16;;;;;;;1.43;1.33;;;18.50;37.90;;;;;;5057713;28;20535;-69
2023/12/05 11:43:07;;;;;;;2.43;1.20;;;18.50;37.90;;;;;;5034463;28;20558;-69
2023/12/05 11:45:44;;;;;;;1.20;1.10;;;18.50;37.90;;;;;;5049020;28;20687;-69
2023/12/05 11:48:13;;;;;;;1.30;1.20;;;18.50;37.90;;;;;;5050985;28;20457;-69
2023/12/05 11:50:47;;;;;;;1.50;1.40;;;18.50;37.90;;;;;;5055213;28;20843;-70
2023/12/05 11:53:15;;;;;;;1.30;1.00;;;18.40;37.80;;;;;;5055998;28;20515;-66
2023/12/05 11:55:47;;;;;;;1.57;1.40;;;18.50;37.90;;;;;;5054916;28;20663;-66
2023/12/05 11:58:32;;;;;;;1.20;1.10;;;18.50;37.90;;;;;;5058384;28;20515;-70
2023/12/05 12:01:09;;;;;;;1.33;1.23;;;18.40;37.80;;;;;;5048522;28;20975;-67
2023/12/05 12:03:49;;;;;;;1.40;1.30;;;18.50;37.90;;;;;;5066139;28;20483;-69
2023/12/05 12:06:23;;;;;;;1.30;1.20;;;18.50;38.60;;;;;;5050527;28;20500;-68
2023/12/05 12:08:52;;;;;;;1.30;1.20;;;18.50;37.90;;;;;;5054429;28;20466;-68
2023/12/05 12:11:20;;;;;;;1.20;1.10;;;18.50;37.90;;;;;;5030186;28;20504;-70
2023/12/05 12:13:48;;;;;;;1.20;1.10;;;18.50;37.90;;;;;;5059034;28;20442;-68
2023/12/05 12:16:16;;;;;;;1.20;1.10;;;18.40;37.80;;;;;;5064478;28;20449;-67
2023/12/05 12:18:42;;;;;;;1.17;1.07;;;18.40;37.80;;;;;;5069192;28;20539;-70
2023/12/05 12:21:07;;;;;;;1.20;1.10;;;18.50;37.90;;;;;;5069303;28;20528;-70
2023/12/05 12:23:33;;;;;;;1.20;1.10;;;18.40;37.80;;;;;;5052439;28;20257;-66
2023/12/05 12:26:00;;;;;;;3.07;1.47;;;18.50;37.90;;;;;;5055892;28;20257;-69
2023/12/05 12:28:28;;;;;;;1.40;1.30;;;18.40;37.80;;;;;;5064265;28;20328;-69
2023/12/05 12:30:58;;;;;;;1.10;1.00;;;18.50;37.90;;;;;;5066630;28;20585;-69
2023/12/05 12:33:46;;;;;;;1.10;1.00;;;18.40;37.80;;;;;;5042798;28;20478;-69
2023/12/05 12:36:13;;;;;;;1.60;1.50;;;18.40;37.80;;;;;;5058827;28;20436;-66
2023/12/05 12:38:40;;;;;;;1.43;1.20;;;18.40;37.80;;;;;;5052889;28;20557;-71
2023/12/05 12:41:05;;;;;;;1.23;1.13;;;18.40;37.80;;;;;;5051344;28;20535;-65
2023/12/05 12:43:33;;;;;;;1.40;1.30;;;18.40;37.90;;;;;;5051841;28;20433;-68
2023/12/05 12:45:59;;;;;;;1.77;1.10;;;18.50;37.90;;;;;;5059993;28;20257;-70
2023/12/05 12:48:25;;;;;;;1.60;1.50;;;18.40;37.80;;;;;;5058135;28;20440;-70